Ashwood, OR

9:37 PM PST on December 21, 2014 (GMT -0800)
APRSWXNET Ashwood OR US | Change Station
CLOSE
Current Station
Personal Weather Station
Location: Ashwood, OR
Elevation: 3343 ft
Nearby Weather Stations

Elev 3343 ft 44.75 °N, 120.81 °W | Updated 355 days ago

Rain
Rain
41 °F
Feels Like 41 °F
N
10
Wind Variable Wind from West
Gusts 13 mph

Today
High -- | Low -- °F
--% Chance of Precip.
Yesterday
High -- | Low -- °F
Precip. -- in
7:37 AM 4:25 PM
New Moon, 0% visible
Pressure 30.14 in
Visibility 10.0 miles
Clouds Few 3900 ft
Mostly Cloudy 4700 ft
Overcast 9000 ft
Dew Point 39 °F
Humidity 90%
Rainfall 0.00 in
Snow Depth Not available.
UV 0 out of 12
Pollen .50 out of 12
Air Quality Not available.
Flu Activity Not available.
METAR KRDM 220456Z AUTO 25003KT 10SM FEW039 BKN047 OVC090 06/04 A3012 RMK AO2 RAB02E16 SLP205 P0000 T00610044

More Conditions Fewer Conditions

Pressure 30.14 in
Visibility 10.0 miles
Clouds Few 3900 ft
Mostly Cloudy 4700 ft
Overcast 9000 ft
Dew Point 39 °F
Humidity 90%
Rainfall 0.00 in
Snow Depth Not available.
UV 0 out of 12
Pollen .50 out of 12
Air Quality Not available.
Flu Activity Not available.
METAR KRDM 220456Z AUTO 25003KT 10SM FEW039 BKN047 OVC090 06/04 A3012 RMK AO2 RAB02E16 SLP205 P0000 T00610044

More Conditions Fewer Conditions

10-Day Weather Forecast

Almanac

Astronomy

Dec. 21, 2014 Rise Set
Actual Time
Civil Twilight
Nautical Twilight
Astronomical Twilight
Moon
Length of Visible Light
Length of Day
Tomorrow will be .
, % of the Moon is Illuminated

Today's Extremes

State Highs State Lows

Community

WunderPhotos

Upload Photos

1,779,549 photos uploaded!

WunderBlogs® & News

Nearby

Air Quality

  Air Quality AQ Index Pollutant
Not available.

Snow Depth

Station Depth Elevation

Earthquake Activity

City Distance Mag. Time & Date
Minimum magnitude displayed is 2.5.

Coastal Water Temperatures

Place Temperature

Nearby Weather Stations